Time;durP1;ratioP1;P1;durP2;ratioP2;P2;SDS_P1;SDS_P2;PMS_P1;PMS_P2;Temp;Humidity;BMP_temperature;BMP_pressure;BME280_temperature;BME280_humidity;BME280_pressure;Samples;Min_cycle;Max_cycle;Signal;HPM_P1;HPM_P2
2022/10/31 00:00:45;;;;;;;152.60;35.87;;;11.30;1.00;;;;;;4937110;28;20200;-85
2022/10/31 00:03:13;;;;;;;99.77;35.70;;;11.30;1.00;;;;;;4937674;29;20269;-86
2022/10/31 00:05:43;;;;;;;39.37;25.60;;;11.30;1.00;;;;;;4937489;28;20210;-86
2022/10/31 00:08:12;;;;;;;44.60;28.30;;;11.20;1.00;;;;;;4937567;28;20197;-85
2022/10/31 00:11:06;;;;;;;30.77;23.00;;;11.30;1.00;;;;;;4937635;29;20204;-84
2022/10/31 00:13:37;;;;;;;30.80;22.93;;;11.20;1.00;;;;;;4927169;28;20233;-88
2022/10/31 00:16:05;;;;;;;36.00;22.97;;;11.10;1.00;;;;;;4936819;28;20748;-88
2022/10/31 00:18:32;;;;;;;37.47;24.70;;;11.10;1.00;;;;;;4937365;28;20210;-88
2022/10/31 00:21:00;;;;;;;44.20;25.23;;;11.00;1.00;;;;;;4937031;29;20205;-83
2022/10/31 00:23:34;;;;;;;64.37;26.77;;;11.00;1.00;;;;;;4936635;28;20644;-90
2022/10/31 00:26:02;;;;;;;291.10;41.27;;;10.90;1.00;;;;;;4936832;29;20204;-83
2022/10/31 00:28:31;;;;;;;267.33;42.87;;;10.90;1.00;;;;;;4937393;28;20204;-86
2022/10/31 00:31:00;;;;;;;337.73;44.10;;;10.90;1.00;;;;;;4936160;28;20628;-88
2022/10/31 00:33:28;;;;;;;118.50;29.07;;;10.90;1.00;;;;;;4937200;28;20214;-83
2022/10/31 00:35:57;;;;;;;38.30;24.10;;;10.90;99.90;;;;;;4936694;28;20249;-85
2022/10/31 00:38:24;;;;;;;38.13;23.33;;;10.90;99.90;;;;;;4936601;28;20207;-87
2022/10/31 00:40:53;;;;;;;99.47;26.80;;;10.80;99.90;;;;;;4936647;28;20566;-82
2022/10/31 00:43:21;;;;;;;274.37;46.60;;;10.80;1.00;;;;;;4936367;28;20200;-83
2022/10/31 00:45:48;;;;;;;219.87;40.73;;;10.70;1.00;;;;;;4936313;28;20581;-85
2022/10/31 00:48:16;;;;;;;117.83;29.77;;;10.70;54.70;;;;;;4936249;28;20299;-87
2022/10/31 00:50:44;;;;;;;130.27;29.17;;;10.70;1.00;;;;;;4936634;28;20215;-85
2022/10/31 00:53:11;;;;;;;247.73;33.50;;;10.70;1.00;;;;;;4936379;28;20194;-87
2022/10/31 00:55:39;;;;;;;231.37;29.37;;;10.60;1.00;;;;;;4936178;28;20214;-86
2022/10/31 00:58:08;;;;;;;224.63;26.47;;;10.60;1.00;;;;;;4935926;29;20729;-85
2022/10/31 01:00:35;;;;;;;254.53;31.50;;;10.50;1.00;;;;;;4936529;28;20209;-86
2022/10/31 01:03:02;;;;;;;301.67;34.13;;;10.50;99.90;;;;;;4936899;28;20259;-85
2022/10/31 01:05:30;;;;;;;246.73;25.03;;;10.50;99.90;;;;;;4936174;29;20660;-83
2022/10/31 01:07:57;;;;;;;124.17;21.07;;;10.50;99.90;;;;;;4941851;28;20194;-89
2022/10/31 01:10:25;;;;;;;298.50;33.27;;;10.50;99.90;;;;;;4936309;28;20219;-85
2022/10/31 01:12:52;;;;;;;276.03;26.57;;;10.50;99.90;;;;;;4936180;29;20210;-86
2022/10/31 01:15:22;;;;;;;308.93;31.37;;;10.50;99.90;;;;;;4935853;29;20257;-83
2022/10/31 01:17:51;;;;;;;532.10;45.10;;;10.50;99.90;;;;;;4935917;29;20198;-86
2022/10/31 01:20:18;;;;;;;374.13;32.07;;;10.50;1.00;;;;;;4936068;29;20213;-82
2022/10/31 01:22:46;;;;;;;280.33;23.33;;;10.50;1.00;;;;;;4936140;28;20202;-87
2022/10/31 01:25:14;;;;;;;375.13;33.30;;;10.60;1.00;;;;;;4935407;29;20201;-85
2022/10/31 01:27:41;;;;;;;81.57;21.57;;;10.50;1.00;;;;;;4936068;28;20290;-84
2022/10/31 01:30:09;;;;;;;460.27;39.10;;;10.50;99.90;;;;;;4936064;29;20203;-88
2022/10/31 01:32:38;;;;;;;604.13;44.97;;;10.40;99.90;;;;;;4935872;29;20203;-87
2022/10/31 01:35:06;;;;;;;686.13;47.73;;;10.40;99.90;;;;;;4935925;29;20226;-86
2022/10/31 01:37:33;;;;;;;588.63;42.47;;;10.40;99.90;;;;;;4935571;29;20211;-84
2022/10/31 01:40:01;;;;;;;521.17;38.40;;;10.30;99.90;;;;;;4935761;29;20205;-85
2022/10/31 01:42:28;;;;;;;399.93;30.93;;;10.30;99.90;;;;;;4935721;29;20202;-90
2022/10/31 01:44:59;;;;;;;165.60;21.90;;;10.30;99.90;;;;;;4934769;29;20206;-87
2022/10/31 01:47:35;;;;;;;120.97;23.90;;;10.30;99.90;;;;;;4935645;29;20218;-85
2022/10/31 01:50:11;;;;;;;51.20;19.40;;;10.30;1.00;;;;;;4935631;29;20198;-87
2022/10/31 01:52:42;;;;;;;54.80;21.23;;;10.30;1.00;;;;;;4935295;29;20208;-86
2022/10/31 01:55:14;;;;;;;36.93;19.73;;;10.30;1.00;;;;;;4935405;28;20214;-88
2022/10/31 01:57:46;;;;;;;33.07;19.10;;;10.30;1.00;;;;;;4935114;28;20591;-87
2022/10/31 02:00:14;;;;;;;28.23;16.77;;;10.30;1.00;;;;;;4935287;28;20206;-86
2022/10/31 02:02:43;;;;;;;38.77;19.13;;;10.30;99.90;;;;;;4935575;29;20233;-84
2022/10/31 02:05:17;;;;;;;29.37;16.83;;;10.30;99.90;;;;;;4935362;29;20206;-84
2022/10/31 02:07:49;;;;;;;201.90;24.27;;;10.30;99.90;;;;;;4934943;28;20683;-87
2022/10/31 02:10:17;;;;;;;394.53;34.40;;;10.20;99.90;;;;;;4935285;28;20294;-84
2022/10/31 02:12:47;;;;;;;454.67;32.13;;;10.20;99.90;;;;;;4935396;28;20292;-84
2022/10/31 02:15:14;;;;;;;293.73;25.27;;;10.20;99.90;;;;;;4934596;29;20615;-85
2022/10/31 02:17:41;;;;;;;66.23;17.90;;;10.20;99.90;;;;;;4934672;28;20330;-86
2022/10/31 02:20:16;;;;;;;144.83;22.93;;;10.10;99.90;;;;;;4934497;28;20616;-85
2022/10/31 02:23:09;;;;;;;456.37;38.40;;;10.20;99.90;;;;;;4934880;29;20190;-86
2022/10/31 02:26:15;;;;;;;508.73;41.70;;;10.10;99.90;;;;;;4934891;28;20195;-81
2022/10/31 02:29:06;;;;;;;108.43;23.17;;;10.20;1.00;;;;;;4894920;29;20309;-85
2022/10/31 02:31:43;;;;;;;34.20;18.93;;;10.20;99.90;;;;;;4934398;29;20218;-87
2022/10/31 02:34:19;;;;;;;169.47;31.07;;;10.20;99.90;;;;;;4935309;29;20255;-86
2022/10/31 02:36:55;;;;;;;504.53;42.20;;;10.20;99.90;;;;;;4934939;29;20314;-85
2022/10/31 02:39:26;;;;;;;364.03;34.40;;;10.20;99.90;;;;;;4935009;28;20293;-91
2022/10/31 02:42:05;;;;;;;335.17;31.03;;;10.20;99.90;;;;;;4934325;29;20573;-88
2022/10/31 02:44:38;;;;;;;38.20;17.27;;;10.20;99.90;;;;;;4934544;29;20542;-86
2022/10/31 02:47:10;;;;;;;29.13;16.73;;;10.20;99.90;;;;;;4934892;29;20185;-84
2022/10/31 02:49:42;;;;;;;27.10;16.53;;;10.20;99.90;;;;;;4934629;28;20266;-85
2022/10/31 02:52:19;;;;;;;26.60;15.93;;;10.20;99.90;;;;;;4934822;28;20201;-85
2022/10/31 02:54:48;;;;;;;36.17;18.13;;;10.20;99.90;;;;;;4934324;29;20203;-83
2022/10/31 02:57:20;;;;;;;43.03;20.60;;;10.20;99.90;;;;;;4934811;28;20227;-85
2022/10/31 02:59:50;;;;;;;48.10;21.87;;;10.10;99.90;;;;;;4915541;29;20730;-83
2022/10/31 03:02:34;;;;;;;50.73;22.10;;;10.10;99.90;;;;;;4919579;29;20186;-85
2022/10/31 03:05:35;;;;;;;57.07;21.67;;;10.10;99.90;;;;;;4934449;28;20709;-84
2022/10/31 03:08:12;;;;;;;141.63;29.10;;;10.10;99.90;;;;;;4929368;29;20209;-84
2022/10/31 03:10:44;;;;;;;203.30;30.73;;;10.10;1.00;;;;;;4934091;28;20200;-82
2022/10/31 03:13:19;;;;;;;481.20;43.80;;;10.10;1.00;;;;;;4934349;28;20236;-87
2022/10/31 03:15:51;;;;;;;479.97;42.23;;;10.10;1.00;;;;;;4934183;29;20207;-84
2022/10/31 03:18:27;;;;;;;72.60;25.90;;;10.10;1.00;;;;;;4934399;28;20263;-86
2022/10/31 03:21:00;;;;;;;69.87;23.43;;;10.00;1.00;;;;;;4934346;28;20206;-84
2022/10/31 03:23:29;;;;;;;51.63;22.00;;;10.10;1.00;;;;;;4934716;29;20198;-86
2022/10/31 03:25:57;;;;;;;210.77;29.67;;;10.00;1.00;;;;;;4934533;29;20228;-85
2022/10/31 03:28:29;;;;;;;271.67;30.50;;;10.00;99.90;;;;;;4934391;28;20209;-88
2022/10/31 03:31:00;;;;;;;161.27;24.37;;;9.90;1.00;;;;;;4934341;28;20347;-82
2022/10/31 03:33:34;;;;;;;178.13;20.03;;;9.90;1.00;;;;;;4934710;28;20204;-89
2022/10/31 03:36:05;;;;;;;183.67;17.53;;;10.00;1.00;;;;;;4933801;28;20231;-84
2022/10/31 03:38:34;;;;;;;102.07;15.37;;;10.00;1.00;;;;;;4934301;29;20203;-88
2022/10/31 03:41:04;;;;;;;146.53;17.07;;;10.00;99.90;;;;;;4934249;28;20210;-86
2022/10/31 03:43:39;;;;;;;73.67;14.73;;;10.10;99.90;;;;;;4934356;29;20184;-85
2022/10/31 03:46:07;;;;;;;59.97;13.40;;;10.10;99.90;;;;;;4934307;28;20216;-88
2022/10/31 03:48:36;;;;;;;65.27;14.00;;;10.10;88.70;;;;;;4934867;29;20209;-87
2022/10/31 03:51:13;;;;;;;65.37;14.37;;;10.00;77.70;;;;;;4937549;29;20197;-86
2022/10/31 03:53:46;;;;;;;80.03;14.87;;;10.00;1.00;;;;;;4937845;29;20184;-86
2022/10/31 03:56:20;;;;;;;69.77;13.87;;;10.00;1.00;;;;;;4937516;29;20694;-86
2022/10/31 03:58:54;;;;;;;49.10;12.43;;;10.00;1.00;;;;;;4937393;28;20204;-86
2022/10/31 04:01:25;;;;;;;76.63;13.63;;;10.00;1.00;;;;;;4937215;29;20193;-85
2022/10/31 04:03:54;;;;;;;77.23;19.00;;;10.00;1.00;;;;;;4937367;29;20234;-84
2022/10/31 04:06:24;;;;;;;67.03;18.03;;;10.00;1.00;;;;;;4937777;28;20201;-84
2022/10/31 04:08:57;;;;;;;66.60;15.07;;;9.90;1.00;;;;;;4937554;29;20240;-86
2022/10/31 04:11:29;;;;;;;104.33;20.43;;;9.90;1.00;;;;;;4937232;28;20221;-85
2022/10/31 04:14:01;;;;;;;119.70;18.40;;;9.90;99.90;;;;;;4937661;29;20205;-87
2022/10/31 04:16:29;;;;;;;94.17;20.00;;;9.80;99.90;;;;;;4936843;28;20723;-83
2022/10/31 04:18:58;;;;;;;117.33;20.33;;;9.80;99.90;;;;;;4937130;28;20643;-88
2022/10/31 04:21:29;;;;;;;89.43;18.10;;;9.80;99.90;;;;;;4937295;28;20228;-86
2022/10/31 04:23:57;;;;;;;78.17;17.53;;;9.80;99.90;;;;;;4937259;28;20224;-86
2022/10/31 04:26:24;;;;;;;75.13;15.30;;;9.80;99.90;;;;;;4937244;28;20228;-89
2022/10/31 04:28:52;;;;;;;69.33;14.13;;;9.80;99.90;;;;;;4937054;29;20223;-85
2022/10/31 04:31:19;;;;;;;80.03;14.33;;;9.80;99.90;;;;;;4937274;29;20686;-86
2022/10/31 04:33:47;;;;;;;46.60;13.80;;;9.80;99.90;;;;;;4936801;28;20736;-86
2022/10/31 04:36:16;;;;;;;42.97;12.50;;;9.80;99.90;;;;;;4936300;28;20598;-87
2022/10/31 04:38:43;;;;;;;53.03;12.03;;;9.80;99.90;;;;;;4936832;29;20298;-88
2022/10/31 04:41:10;;;;;;;76.30;13.57;;;9.80;99.90;;;;;;4937165;28;20198;-85
2022/10/31 04:43:38;;;;;;;66.33;14.17;;;9.80;99.90;;;;;;4936908;28;20208;-86
2022/10/31 04:46:06;;;;;;;70.67;14.60;;;9.70;99.90;;;;;;4936898;29;20196;-84
2022/10/31 04:48:33;;;;;;;88.40;15.03;;;9.70;99.90;;;;;;4936733;28;20193;-85
2022/10/31 04:51:02;;;;;;;111.73;21.10;;;9.70;99.90;;;;;;4937002;28;20664;-86
2022/10/31 04:53:31;;;;;;;107.97;17.43;;;9.70;99.90;;;;;;4937061;28;20212;-83
2022/10/31 04:56:03;;;;;;;112.03;24.13;;;9.80;99.90;;;;;;4936049;28;20271;-85
2022/10/31 04:58:31;;;;;;;97.17;17.93;;;9.80;99.90;;;;;;4932658;29;20301;-87
2022/10/31 05:00:58;;;;;;;110.43;20.53;;;9.70;99.90;;;;;;4936203;29;20267;-86
2022/10/31 05:03:25;;;;;;;99.40;17.30;;;9.70;99.90;;;;;;4936823;29;20211;-84
2022/10/31 05:05:53;;;;;;;80.33;16.93;;;9.70;99.90;;;;;;4937054;29;20210;-87
2022/10/31 05:08:20;;;;;;;110.20;24.10;;;9.70;1.00;;;;;;4936123;29;20216;-86
2022/10/31 05:10:49;;;;;;;79.90;20.80;;;9.70;1.00;;;;;;4935351;28;20212;-84
2022/10/31 05:13:17;;;;;;;98.23;22.97;;;9.70;1.00;;;;;;4936246;29;20288;-84
2022/10/31 05:15:44;;;;;;;107.90;27.17;;;9.60;99.90;;;;;;4936582;29;20193;-89
2022/10/31 05:18:12;;;;;;;112.70;27.37;;;9.50;5.20;;;;;;4935733;29;20235;-89
2022/10/31 05:20:39;;;;;;;102.43;26.23;;;9.50;1.00;;;;;;4936222;29;20203;-85
2022/10/31 05:23:06;;;;;;;111.07;26.53;;;9.40;1.00;;;;;;4936385;29;20236;-85
2022/10/31 05:25:33;;;;;;;111.37;25.80;;;9.40;1.00;;;;;;4935636;29;20689;-87
2022/10/31 05:28:02;;;;;;;114.27;25.53;;;9.30;1.00;;;;;;4936199;29;20204;-87
2022/10/31 05:30:32;;;;;;;96.40;20.93;;;9.30;1.00;;;;;;4936421;28;20206;-86
2022/10/31 05:32:59;;;;;;;117.10;23.87;;;9.30;1.00;;;;;;4935082;29;20571;-88
2022/10/31 05:35:29;;;;;;;79.10;21.57;;;9.40;1.00;;;;;;4935687;29;20260;-84
2022/10/31 05:37:57;;;;;;;90.67;22.77;;;9.40;1.00;;;;;;4935788;28;20320;-83
2022/10/31 05:40:26;;;;;;;67.43;21.47;;;9.50;1.00;;;;;;4935178;29;20193;-87
2022/10/31 05:42:54;;;;;;;53.53;20.60;;;9.50;1.00;;;;;;4935144;29;20193;-82
2022/10/31 05:45:24;;;;;;;88.90;24.30;;;9.50;1.00;;;;;;4934279;29;20667;-84
2022/10/31 05:47:52;;;;;;;110.27;27.30;;;9.50;1.00;;;;;;4934911;28;20200;-85
2022/10/31 05:50:20;;;;;;;105.07;25.97;;;9.60;1.00;;;;;;4934947;29;20205;-84
2022/10/31 05:52:47;;;;;;;82.87;23.37;;;9.50;1.00;;;;;;4935127;29;20277;-88
2022/10/31 05:55:14;;;;;;;109.60;26.30;;;9.60;1.00;;;;;;4935664;29;20196;-86
2022/10/31 05:57:42;;;;;;;110.37;24.67;;;9.60;1.00;;;;;;4943787;28;20220;-85
2022/10/31 06:00:10;;;;;;;145.13;24.07;;;9.60;1.00;;;;;;4955108;28;20286;-83
2022/10/31 06:02:38;;;;;;;189.43;33.70;;;9.60;1.00;;;;;;4950149;28;20659;-83
2022/10/31 06:05:06;;;;;;;228.40;49.77;;;9.60;1.00;;;;;;4934288;29;20240;-82
2022/10/31 06:07:34;;;;;;;236.50;48.23;;;9.70;1.00;;;;;;4935326;29;20737;-81
2022/10/31 06:10:01;;;;;;;178.03;32.97;;;9.80;1.00;;;;;;4934729;29;20198;-83
2022/10/31 06:12:28;;;;;;;223.13;41.93;;;9.70;1.00;;;;;;4935263;29;20675;-82
2022/10/31 06:14:55;;;;;;;171.30;40.10;;;9.80;1.00;;;;;;4935391;29;20193;-82
2022/10/31 06:17:22;;;;;;;172.87;36.27;;;9.90;1.00;;;;;;4934637;29;20279;-84
2022/10/31 06:19:51;;;;;;;140.83;33.07;;;9.90;1.00;;;;;;4934914;29;20662;-83
2022/10/31 06:22:18;;;;;;;162.10;30.67;;;9.90;88.30;;;;;;4933997;29;20192;-83
2022/10/31 06:24:45;;;;;;;89.03;23.63;;;10.00;99.90;;;;;;4934789;29;20208;-83
2022/10/31 06:27:12;;;;;;;65.07;18.47;;;10.00;99.90;;;;;;4934809;29;20192;-84
2022/10/31 06:29:39;;;;;;;61.27;16.00;;;10.10;99.90;;;;;;4934537;29;20236;-82
2022/10/31 06:32:06;;;;;;;69.70;20.23;;;10.10;92.30;;;;;;4934437;29;20245;-82
2022/10/31 06:34:33;;;;;;;90.40;21.17;;;10.10;99.90;;;;;;4934497;29;20666;-82
2022/10/31 06:37:02;;;;;;;55.40;17.60;;;10.20;99.90;;;;;;4933663;29;20279;-82
2022/10/31 06:39:29;;;;;;;65.63;16.83;;;10.20;16.70;;;;;;4934925;29;20208;-82
2022/10/31 06:41:56;;;;;;;54.67;16.93;;;10.20;1.00;;;;;;4934487;29;20592;-82
2022/10/31 06:44:23;;;;;;;70.93;17.97;;;10.20;6.20;;;;;;4933964;29;20204;-82
2022/10/31 06:46:50;;;;;;;78.13;19.87;;;10.20;99.90;;;;;;4934605;29;20193;-83
2022/10/31 06:49:17;;;;;;;60.27;17.07;;;10.30;70.40;;;;;;4934830;29;20272;-82
2022/10/31 06:51:44;;;;;;;55.20;17.77;;;10.30;1.00;;;;;;4934807;29;20213;-83
2022/10/31 06:54:12;;;;;;;75.07;23.87;;;10.30;1.00;;;;;;4934674;29;20715;-83
2022/10/31 06:56:39;;;;;;;81.47;22.33;;;10.40;1.00;;;;;;4934558;29;20206;-82
2022/10/31 06:59:06;;;;;;;59.77;20.03;;;10.50;1.00;;;;;;4934388;29;20707;-82
2022/10/31 07:01:33;;;;;;;65.40;20.53;;;10.50;1.00;;;;;;4934644;29;20246;-83
2022/10/31 07:04:00;;;;;;;58.73;21.47;;;10.50;1.00;;;;;;4934530;29;20599;-82
2022/10/31 07:06:27;;;;;;;71.17;22.43;;;10.60;1.00;;;;;;4935099;29;20199;-82
2022/10/31 07:08:54;;;;;;;80.87;23.03;;;10.70;1.00;;;;;;4934805;29;20209;-83
2022/10/31 07:11:23;;;;;;;90.57;32.10;;;10.70;1.00;;;;;;4934005;29;20248;-82
2022/10/31 07:13:50;;;;;;;102.80;41.13;;;10.80;1.00;;;;;;4934216;29;20192;-84
2022/10/31 07:16:17;;;;;;;127.20;44.23;;;10.80;1.00;;;;;;4934270;29;20209;-83
2022/10/31 07:18:44;;;;;;;86.97;30.03;;;10.90;99.90;;;;;;4933192;29;20693;-84
2022/10/31 07:21:11;;;;;;;97.20;29.87;;;11.00;99.90;;;;;;4934505;29;20194;-83
2022/10/31 07:23:38;;;;;;;61.70;20.97;;;11.00;99.90;;;;;;4934964;29;20191;-82
2022/10/31 07:26:05;;;;;;;66.23;20.90;;;11.10;99.90;;;;;;4938605;29;20662;-82
2022/10/31 07:28:33;;;;;;;57.83;19.17;;;11.10;99.90;;;;;;4929977;29;20600;-83
2022/10/31 07:31:00;;;;;;;56.03;20.27;;;11.10;99.90;;;;;;4935441;29;20288;-82
2022/10/31 07:33:28;;;;;;;52.30;19.00;;;11.20;99.90;;;;;;4935843;29;20245;-82
2022/10/31 07:35:55;;;;;;;58.67;19.83;;;11.30;99.90;;;;;;4932407;29;20230;-81
2022/10/31 07:38:22;;;;;;;62.33;21.63;;;11.30;99.90;;;;;;4938327;28;20259;-82
2022/10/31 07:40:52;;;;;;;83.33;21.57;;;11.40;99.90;;;;;;4936326;29;20191;-83
2022/10/31 07:43:20;;;;;;;82.20;20.63;;;11.40;99.90;;;;;;4937491;29;20279;-83
2022/10/31 07:45:52;;;;;;;49.47;17.87;;;11.50;99.90;;;;;;4937436;29;20690;-83
2022/10/31 07:48:20;;;;;;;117.77;20.40;;;11.50;99.90;;;;;;4938060;29;20192;-82
2022/10/31 07:50:47;;;;;;;72.03;18.83;;;11.70;99.90;;;;;;4937929;29;20225;-83
2022/10/31 07:53:24;;;;;;;48.67;16.80;;;11.70;99.90;;;;;;4949749;29;20223;-84
2022/10/31 07:55:52;;;;;;;46.77;17.87;;;11.70;99.90;;;;;;4954071;29;20239;-82
2022/10/31 07:58:19;;;;;;;49.43;19.43;;;11.80;99.90;;;;;;4937573;29;20620;-82
2022/10/31 08:00:47;;;;;;;78.17;22.00;;;11.90;99.90;;;;;;4937481;29;20257;-83
2022/10/31 08:03:18;;;;;;;67.10;22.57;;;12.00;99.90;;;;;;4937444;29;20244;-83
2022/10/31 08:05:45;;;;;;;70.53;23.67;;;12.10;99.90;;;;;;4937487;29;20244;-82
2022/10/31 08:08:13;;;;;;;51.17;20.77;;;12.20;99.90;;;;;;4937253;29;20294;-83
2022/10/31 08:10:41;;;;;;;64.30;23.63;;;12.30;99.90;;;;;;4937815;29;20205;-83
2022/10/31 08:13:10;;;;;;;52.27;26.37;;;12.40;99.90;;;;;;4937199;29;20290;-83
2022/10/31 08:15:39;;;;;;;70.33;26.83;;;12.60;99.90;;;;;;4937431;29;20195;-83
2022/10/31 08:18:06;;;;;;;66.60;36.17;;;12.60;1.00;;;;;;4937316;29;20317;-84
2022/10/31 08:20:35;;;;;;;50.90;24.77;;;12.70;1.00;;;;;;4937117;29;20261;-82
2022/10/31 08:23:03;;;;;;;42.27;23.30;;;12.80;1.00;;;;;;4937794;29;20263;-82
2022/10/31 08:25:32;;;;;;;37.10;21.00;;;12.90;58.10;;;;;;4937278;29;20208;-83
2022/10/31 08:27:59;;;;;;;37.23;20.63;;;13.00;42.00;;;;;;4936844;29;20204;-82
2022/10/31 08:30:29;;;;;;;36.47;21.20;;;13.10;1.00;;;;;;4937105;29;20268;-83
2022/10/31 08:33:03;;;;;;;30.57;20.67;;;13.20;1.00;;;;;;4936736;29;20200;-82
2022/10/31 08:35:30;;;;;;;28.20;20.07;;;13.30;1.00;;;;;;4936776;29;20657;-82
2022/10/31 08:37:59;;;;;;;29.63;19.80;;;13.30;1.00;;;;;;4937058;29;20215;-83
2022/10/31 08:40:27;;;;;;;33.13;21.00;;;13.40;1.00;;;;;;4936604;29;20659;-82
2022/10/31 08:43:02;;;;;;;32.93;22.93;;;13.50;1.00;;;;;;4936904;29;20199;-83
2022/10/31 08:45:29;;;;;;;31.60;21.27;;;13.60;1.00;;;;;;4936607;29;20192;-81
2022/10/31 08:48:00;;;;;;;30.17;20.27;;;13.70;1.00;;;;;;4935758;29;20202;-83
2022/10/31 08:50:29;;;;;;;35.83;27.63;;;13.80;1.00;;;;;;4936191;29;20193;-82
2022/10/31 08:53:02;;;;;;;50.43;35.90;;;13.80;1.00;;;;;;4935759;29;20191;-82
2022/10/31 08:55:29;;;;;;;46.10;24.83;;;13.90;1.00;;;;;;4936306;29;20227;-82
2022/10/31 08:57:57;;;;;;;38.07;26.57;;;14.10;1.00;;;;;;4936115;29;20228;-83
2022/10/31 09:00:24;;;;;;;30.97;21.33;;;14.10;1.00;;;;;;4936045;29;20236;-82
2022/10/31 09:02:56;;;;;;;31.17;22.60;;;14.30;1.00;;;;;;4936092;29;20275;-83
2022/10/31 09:05:24;;;;;;;38.30;29.47;;;14.40;38.90;;;;;;4934751;29;20185;-82
2022/10/31 09:07:51;;;;;;;34.77;23.23;;;14.60;1.00;;;;;;4936254;29;20659;-82
2022/10/31 09:10:20;;;;;;;28.48;23.48;;;14.70;1.00;;;;;;4936201;29;20203;-82
2022/10/31 09:12:47;;;;;;;32.27;22.07;;;14.80;1.00;;;;;;4936280;29;20204;-83
2022/10/31 09:15:14;;;;;;;43.95;31.40;;;14.90;1.00;;;;;;4935639;29;20233;-81
2022/10/31 09:17:47;;;;;;;32.80;27.42;;;15.10;1.00;;;;;;4935305;29;20672;-81
2022/10/31 09:20:14;;;;;;;32.20;24.85;;;15.20;1.00;;;;;;4935529;29;20238;-81
2022/10/31 09:22:42;;;;;;;32.40;23.90;;;15.30;99.90;;;;;;4940239;29;20198;-85
2022/10/31 09:25:11;;;;;;;39.35;25.58;;;15.40;99.90;;;;;;4958745;29;20233;-83
2022/10/31 09:27:49;;;;;;;34.35;26.05;;;15.50;99.90;;;;;;4958616;28;20196;-86
2022/10/31 09:30:17;;;;;;;32.53;24.40;;;15.50;99.90;;;;;;4940130;29;20189;-85
2022/10/31 09:32:44;;;;;;;44.88;36.70;;;15.70;99.90;;;;;;4925448;29;20221;-84
2022/10/31 09:35:11;;;;;;;70.30;59.75;;;15.70;99.90;;;;;;4916567;29;20261;-81
2022/10/31 09:37:38;;;;;;;45.17;34.35;;;15.70;99.90;;;;;;4929487;29;20192;-80
2022/10/31 09:40:05;;;;;;;33.80;25.50;;;15.80;99.90;;;;;;4922557;29;20221;-80
2022/10/31 09:42:49;;;;;;;30.05;24.73;;;15.80;99.90;;;;;;4930216;29;20180;-85
2022/10/31 09:45:22;;;;;;;32.83;25.13;;;15.80;1.00;;;;;;4934526;29;20192;-82
2022/10/31 09:48:02;;;;;;;33.22;28.40;;;16.00;99.90;;;;;;4934977;29;20708;-82
2022/10/31 09:50:37;;;;;;;31.75;23.23;;;16.10;99.90;;;;;;4935744;29;20267;-82
2022/10/31 09:53:09;;;;;;;32.05;23.27;;;16.10;99.90;;;;;;4935790;29;20233;-82
2022/10/31 09:55:41;;;;;;;29.00;22.27;;;16.30;99.90;;;;;;4931674;29;20177;-82
2022/10/31 09:58:16;;;;;;;39.65;27.10;;;16.40;99.90;;;;;;4935575;29;20286;-81
2022/10/31 10:00:45;;;;;;;33.42;26.13;;;16.50;99.90;;;;;;4935724;29;20252;-81
2022/10/31 10:03:21;;;;;;;34.97;27.85;;;16.60;1.00;;;;;;4935541;29;20193;-88
2022/10/31 10:05:58;;;;;;;30.63;24.35;;;16.70;1.00;;;;;;4935905;29;20205;-84
2022/10/31 10:08:31;;;;;;;32.67;24.95;;;16.90;99.90;;;;;;4935553;29;20193;-85
2022/10/31 10:11:09;;;;;;;33.05;24.70;;;16.90;44.40;;;;;;4935935;29;20196;-82
2022/10/31 10:13:56;;;;;;;32.97;25.17;;;16.90;1.00;;;;;;4932641;29;20192;-81
2022/10/31 10:17:06;;;;;;;38.83;25.27;;;17.00;1.00;;;;;;4936404;29;20197;-84
2022/10/31 10:19:55;;;;;;;37.95;25.95;;;17.00;99.90;;;;;;4937851;29;20260;-81
2022/10/31 10:22:37;;;;;;;36.22;24.90;;;17.00;99.90;;;;;;4936550;29;20201;-88
2022/10/31 10:25:16;;;;;;;33.13;24.80;;;17.00;99.90;;;;;;4928827;29;20216;-81
2022/10/31 10:27:56;;;;;;;40.42;30.52;;;17.00;1.00;;;;;;4925849;29;20226;-81
2022/10/31 10:30:31;;;;;;;35.88;26.77;;;17.00;1.00;;;;;;4933659;29;20663;-82
2022/10/31 10:33:00;;;;;;;33.90;26.20;;;17.00;1.00;;;;;;4928605;29;20667;-80
2022/10/31 10:35:34;;;;;;;39.05;29.17;;;17.20;1.00;;;;;;4934002;29;20189;-83
2022/10/31 10:38:10;;;;;;;34.33;25.83;;;17.20;1.00;;;;;;4934224;29;20230;-81
2022/10/31 10:40:38;;;;;;;33.72;27.02;;;17.30;99.90;;;;;;4932793;29;20189;-80
2022/10/31 10:43:22;;;;;;;39.75;26.48;;;17.20;99.90;;;;;;4934102;29;20204;-81
2022/10/31 10:48:52;;;;;;;38.63;27.25;;;17.30;1.00;;;;;;4933801;29;20200;-81
2022/10/31 10:51:23;;;;;;;35.10;25.83;;;17.30;1.00;;;;;;4932444;29;20255;-81
2022/10/31 10:54:20;;;;;;;39.83;27.25;;;17.40;1.00;;;;;;4934490;29;20538;-80
2022/10/31 10:57:02;;;;;;;37.00;26.65;;;17.50;99.90;;;;;;4934369;29;20263;-81
2022/10/31 10:59:30;;;;;;;36.67;25.95;;;17.40;83.60;;;;;;4935953;29;20209;-81
2022/10/31 11:01:59;;;;;;;38.55;28.95;;;17.50;1.00;;;;;;4938040;29;20249;-81
2022/10/31 11:04:34;;;;;;;36.75;25.40;;;17.50;1.00;;;;;;4936373;29;20227;-81
2022/10/31 11:07:03;;;;;;;35.47;24.92;;;17.60;1.00;;;;;;4934005;29;20222;-81
2022/10/31 11:09:30;;;;;;;35.05;27.35;;;17.60;99.90;;;;;;4926542;29;20204;-81
2022/10/31 11:11:58;;;;;;;29.73;24.60;;;17.60;99.90;;;;;;4937591;29;20204;-81
2022/10/31 11:14:27;;;;;;;37.15;25.75;;;17.60;99.90;;;;;;4934395;29;20189;-81
2022/10/31 11:17:10;;;;;;;36.47;29.02;;;17.60;99.90;;;;;;4937701;29;20214;-81
2022/10/31 11:19:38;;;;;;;33.10;26.83;;;17.60;99.90;;;;;;4938231;29;20264;-82
2022/10/31 11:22:09;;;;;;;31.30;24.23;;;17.70;96.00;;;;;;4944034;29;20529;-83
2022/10/31 11:24:41;;;;;;;28.20;24.35;;;17.80;1.00;;;;;;4938515;29;20201;-82
2022/10/31 11:27:17;;;;;;;40.30;27.17;;;17.80;1.00;;;;;;4937956;29;20209;-82
2022/10/31 11:29:44;;;;;;;28.98;24.08;;;17.90;1.00;;;;;;4937720;29;20632;-82
2022/10/31 11:32:21;;;;;;;31.35;24.73;;;18.00;1.00;;;;;;4937689;29;20707;-82
2022/10/31 11:34:51;;;;;;;26.30;22.10;;;18.00;99.90;;;;;;4937165;29;20193;-82
2022/10/31 11:37:21;;;;;;;31.08;25.35;;;18.00;99.90;;;;;;4942659;29;20302;-82
2022/10/31 11:39:53;;;;;;;28.73;23.27;;;17.90;1.00;;;;;;4941248;28;20562;-82
2022/10/31 11:42:23;;;;;;;30.60;24.95;;;17.90;93.20;;;;;;4918860;29;20271;-82
2022/10/31 11:44:51;;;;;;;30.98;22.98;;;17.90;1.00;;;;;;4925698;29;20563;-83
2022/10/31 11:47:26;;;;;;;26.70;21.92;;;17.80;1.00;;;;;;4937913;29;20256;-83
2022/10/31 11:49:53;;;;;;;27.08;21.63;;;17.80;1.00;;;;;;4937536;29;20217;-83
2022/10/31 11:52:24;;;;;;;27.67;22.65;;;17.80;1.00;;;;;;4929759;29;20261;-82
2022/10/31 11:54:55;;;;;;;32.47;22.58;;;17.90;1.00;;;;;;4932017;29;20248;-83
2022/10/31 11:57:25;;;;;;;28.98;23.02;;;18.00;1.00;;;;;;4937531;29;20273;-83
2022/10/31 11:59:54;;;;;;;32.22;23.65;;;18.10;1.00;;;;;;4946166;29;20584;-82
2022/10/31 12:02:22;;;;;;;27.30;21.50;;;18.20;1.00;;;;;;4944802;28;20200;-83
2022/10/31 12:04:56;;;;;;;23.95;20.58;;;18.20;99.90;;;;;;4937752;29;20616;-82
2022/10/31 12:07:24;;;;;;;32.10;24.45;;;18.30;99.90;;;;;;4937213;29;20236;-83
2022/10/31 12:09:51;;;;;;;36.05;28.25;;;18.40;99.90;;;;;;4936115;29;20607;-83
2022/10/31 12:12:36;;;;;;;27.02;21.67;;;18.50;99.90;;;;;;4951034;29;20220;-83
2022/10/31 12:15:18;;;;;;;30.40;20.55;;;18.60;99.90;;;;;;4921061;29;20206;-83
2022/10/31 12:17:52;;;;;;;26.02;20.88;;;18.70;90.80;;;;;;4937510;29;20208;-83
2022/10/31 12:20:29;;;;;;;29.15;21.42;;;18.70;94.60;;;;;;4937161;29;20731;-83
2022/10/31 12:23:04;;;;;;;24.42;21.27;;;18.80;96.20;;;;;;4943920;29;20528;-83
2022/10/31 12:25:41;;;;;;;28.90;20.77;;;18.80;1.00;;;;;;4952502;28;20195;-81
2022/10/31 12:28:26;;;;;;;26.85;21.00;;;18.80;1.00;;;;;;4946572;28;20185;-81
2022/10/31 12:31:03;;;;;;;27.05;22.73;;;18.70;1.00;;;;;;4937379;29;20192;-82
2022/10/31 12:33:48;;;;;;;25.95;21.77;;;18.60;1.00;;;;;;4939379;29;20650;-81
2022/10/31 12:36:43;;;;;;;29.08;21.23;;;18.60;1.00;;;;;;4936219;29;20221;-81
2022/10/31 12:39:24;;;;;;;41.40;33.72;;;18.70;4.40;;;;;;4917795;29;20281;-81
2022/10/31 12:41:57;;;;;;;30.40;23.42;;;18.70;1.00;;;;;;4917903;29;20182;-82
2022/10/31 12:45:01;;;;;;;26.02;21.63;;;18.60;1.00;;;;;;4935769;29;20244;-82
2022/10/31 12:47:41;;;;;;;23.17;19.80;;;18.50;1.00;;;;;;4917779;29;20177;-82
2022/10/31 12:50:25;;;;;;;28.23;20.63;;;18.50;1.00;;;;;;4929955;29;20239;-82
2022/10/31 12:53:04;;;;;;;24.77;19.50;;;18.30;1.00;;;;;;4936026;29;20636;-82